Strona główna
METAR-TAF:

METAR-TAF

Lotnisko :

Port lotniczy Tawau

Tawau, Malezja

Szerokość geograficzna: 04-16N, Długość geograficzna: 117-53E, wysokość: 18 m

Aktualna obserwacja pogody

Raport powstał 19 minut temu, godzina 04:00 UTC
Wiatr 5 kt od południowy wschód, zmienny między wschodnio-północny wschód i południowo-południowy zachód
Temperatura 31°C
Wilgotność 71%
Ciśnienie 1009 hPa
Widzialność 10 km lub więcej
Mało chmury na wysokości 1700 ft
Rozproszone chmury na wysokości 14000 ft
Przerywane chmury na wysokości 28000 ft

METAR: WBKW 110400Z 14005KT 070V210 9999 FEW017 SCT140 BKN280 31/25 Q1009

czas: 12:19 (04:19 UTC)

Prognoza

Raport powstał 5 godziny i 19 minut temu, godzina 23:00 UTC
Prognoza ważna od 11 godzina 00 UTC do 12 godzina 00 UTC
Wiatr 5 kt od północ
Widzialność 10 km lub więcej
Mało chmury na wysokości 1700 ft

TAF: WBKW 102300Z 1100/1200 35005KT 9999 FEW017

Obserwacja i prognoza pogody dla ponad 4000 lotnisk (raport METAR i TAF).

Dostępne stacje oznaczono żółtymi i czerwonymi punktami na mapie.

Najedź kursorem aby zobaczyć nazwę stacji.

Kliknij aby zobaczyć obserwacje i prognozy pogody.

Aby zmienić mapę: kliknij na zielony przycisk z czarnym krzyżykiem, aby powiększyć; na zielony przycisk z myślnikiem, aby pomniejszyć; na zielone strzałki, aby przejść do map sąsiednich.


METAR-TAF: